sensor_id;sensor_type;location;lat;lon;timestamp;P1;durP1;ratioP1;P2;durP2;ratioP2
20731;SDS011;10527;52.124;5.196;2024-03-23T00:52:31;15.00;;;4.50;;
20731;SDS011;10527;52.124;5.196;2024-03-23T00:54:57;16.17;;;4.60;;
20731;SDS011;10527;52.124;5.196;2024-03-23T00:57:23;15.17;;;4.50;;
20731;SDS011;10527;52.124;5.196;2024-03-23T00:59:50;16.40;;;4.63;;
20731;SDS011;10527;52.124;5.196;2024-03-23T01:02:16;14.30;;;3.83;;
20731;SDS011;10527;52.124;5.196;2024-03-23T01:04:42;13.67;;;4.03;;
20731;SDS011;10527;52.124;5.196;2024-03-23T01:07:09;16.50;;;4.30;;
20731;SDS011;10527;52.124;5.196;2024-03-23T01:09:35;13.60;;;4.37;;
20731;SDS011;10527;52.124;5.196;2024-03-23T01:12:04;11.87;;;4.07;;
20731;SDS011;10527;52.124;5.196;2024-03-23T01:14:31;20.47;;;4.77;;
20731;SDS011;10527;52.124;5.196;2024-03-23T01:16:58;21.03;;;4.90;;
20731;SDS011;10527;52.124;5.196;2024-03-23T01:19:24;12.13;;;4.37;;
20731;SDS011;10527;52.124;5.196;2024-03-23T01:21:50;11.57;;;3.47;;
20731;SDS011;10527;52.124;5.196;2024-03-23T01:24:17;13.17;;;3.97;;
20731;SDS011;10527;52.124;5.196;2024-03-23T01:26:43;14.77;;;3.83;;
20731;SDS011;10527;52.124;5.196;2024-03-23T01:29:09;15.50;;;3.60;;
20731;SDS011;10527;52.124;5.196;2024-03-23T01:31:36;11.57;;;3.57;;
20731;SDS011;10527;52.124;5.196;2024-03-23T01:34:03;14.80;;;3.83;;
20731;SDS011;10527;52.124;5.196;2024-03-23T01:36:29;17.03;;;3.67;;
20731;SDS011;10527;52.124;5.196;2024-03-23T01:38:56;15.00;;;3.63;;
20731;SDS011;10527;52.124;5.196;2024-03-23T01:41:23;14.30;;;4.00;;
20731;SDS011;10527;52.124;5.196;2024-03-23T01:43:50;12.67;;;3.53;;
20731;SDS011;10527;52.124;5.196;2024-03-23T01:46:17;10.20;;;3.77;;
20731;SDS011;10527;52.124;5.196;2024-03-23T01:48:44;17.67;;;4.10;;
20731;SDS011;10527;52.124;5.196;2024-03-23T01:51:11;11.57;;;3.63;;
20731;SDS011;10527;52.124;5.196;2024-03-23T01:53:38;9.50;;;3.37;;
20731;SDS011;10527;52.124;5.196;2024-03-23T01:56:04;8.23;;;3.03;;
20731;SDS011;10527;52.124;5.196;2024-03-23T01:58:32;14.97;;;4.10;;
20731;SDS011;10527;52.124;5.196;2024-03-23T02:00:59;12.37;;;3.70;;
20731;SDS011;10527;52.124;5.196;2024-03-23T02:03:26;12.10;;;3.90;;
20731;SDS011;10527;52.124;5.196;2024-03-23T02:05:53;14.40;;;4.07;;
20731;SDS011;10527;52.124;5.196;2024-03-23T02:08:21;13.47;;;3.67;;
20731;SDS011;10527;52.124;5.196;2024-03-23T02:10:49;16.20;;;4.17;;
20731;SDS011;10527;52.124;5.196;2024-03-23T02:13:16;10.73;;;3.70;;
20731;SDS011;10527;52.124;5.196;2024-03-23T02:15:45;11.70;;;3.70;;
20731;SDS011;10527;52.124;5.196;2024-03-23T02:18:12;11.10;;;2.80;;
20731;SDS011;10527;52.124;5.196;2024-03-23T02:20:39;11.63;;;3.93;;
20731;SDS011;10527;52.124;5.196;2024-03-23T02:23:10;12.33;;;3.23;;
20731;SDS011;10527;52.124;5.196;2024-03-23T02:25:39;11.30;;;3.50;;
20731;SDS011;10527;52.124;5.196;2024-03-23T02:28:05;12.33;;;3.80;;
20731;SDS011;10527;52.124;5.196;2024-03-23T02:30:32;12.73;;;3.30;;
20731;SDS011;10527;52.124;5.196;2024-03-23T02:32:58;14.80;;;3.70;;
20731;SDS011;10527;52.124;5.196;2024-03-23T02:35:25;13.87;;;3.17;;
20731;SDS011;10527;52.124;5.196;2024-03-23T02:37:51;11.13;;;2.70;;
20731;SDS011;10527;52.124;5.196;2024-03-23T02:40:19;9.93;;;3.30;;
20731;SDS011;10527;52.124;5.196;2024-03-23T02:42:46;12.60;;;3.33;;
20731;SDS011;10527;52.124;5.196;2024-03-23T02:45:12;12.67;;;3.23;;
20731;SDS011;10527;52.124;5.196;2024-03-23T02:47:39;11.67;;;3.13;;
20731;SDS011;10527;52.124;5.196;2024-03-23T02:50:05;11.20;;;3.27;;
20731;SDS011;10527;52.124;5.196;2024-03-23T02:52:32;14.37;;;3.20;;
20731;SDS011;10527;52.124;5.196;2024-03-23T02:54:59;14.47;;;2.87;;
20731;SDS011;10527;52.124;5.196;2024-03-23T02:57:27;11.43;;;3.47;;
20731;SDS011;10527;52.124;5.196;2024-03-23T02:59:53;12.00;;;4.80;;
20731;SDS011;10527;52.124;5.196;2024-03-23T03:02:20;11.43;;;3.17;;
20731;SDS011;10527;52.124;5.196;2024-03-23T03:04:47;9.17;;;2.70;;
20731;SDS011;10527;52.124;5.196;2024-03-23T03:07:14;10.73;;;3.87;;
20731;SDS011;10527;52.124;5.196;2024-03-23T03:09:40;10.70;;;2.67;;
20731;SDS011;10527;52.124;5.196;2024-03-23T03:12:07;12.73;;;3.00;;
20731;SDS011;10527;52.124;5.196;2024-03-23T03:14:33;8.20;;;2.50;;
20731;SDS011;10527;52.124;5.196;2024-03-23T03:17:01;9.80;;;2.27;;
20731;SDS011;10527;52.124;5.196;2024-03-23T03:19:27;9.57;;;2.73;;
20731;SDS011;10527;52.124;5.196;2024-03-23T03:21:53;6.43;;;2.40;;
20731;SDS011;10527;52.124;5.196;2024-03-23T03:24:20;7.87;;;2.47;;
20731;SDS011;10527;52.124;5.196;2024-03-23T03:26:47;6.57;;;2.23;;
20731;SDS011;10527;52.124;5.196;2024-03-23T03:29:15;11.53;;;2.70;;
20731;SDS011;10527;52.124;5.196;2024-03-23T03:31:44;6.93;;;2.37;;
20731;SDS011;10527;52.124;5.196;2024-03-23T03:34:11;8.93;;;2.03;;
20731;SDS011;10527;52.124;5.196;2024-03-23T03:36:37;11.53;;;2.33;;
20731;SDS011;10527;52.124;5.196;2024-03-23T03:39:05;7.57;;;2.90;;
20731;SDS011;10527;52.124;5.196;2024-03-23T03:41:32;8.73;;;2.70;;
20731;SDS011;10527;52.124;5.196;2024-03-23T03:43:58;8.30;;;2.27;;
20731;SDS011;10527;52.124;5.196;2024-03-23T03:46:27;11.60;;;2.60;;
20731;SDS011;10527;52.124;5.196;2024-03-23T03:48:54;9.20;;;1.93;;
20731;SDS011;10527;52.124;5.196;2024-03-23T03:51:20;5.73;;;1.70;;
20731;SDS011;10527;52.124;5.196;2024-03-23T03:53:47;12.23;;;2.43;;
20731;SDS011;10527;52.124;5.196;2024-03-23T03:56:14;9.17;;;2.33;;
20731;SDS011;10527;52.124;5.196;2024-03-23T03:58:40;5.80;;;1.90;;
20731;SDS011;10527;52.124;5.196;2024-03-23T04:01:07;9.03;;;2.57;;
20731;SDS011;10527;52.124;5.196;2024-03-23T04:03:33;8.30;;;2.40;;
20731;SDS011;10527;52.124;5.196;2024-03-23T04:06:00;10.53;;;2.30;;
20731;SDS011;10527;52.124;5.196;2024-03-23T04:08:26;10.53;;;3.43;;
20731;SDS011;10527;52.124;5.196;2024-03-23T04:10:52;8.90;;;2.23;;
20731;SDS011;10527;52.124;5.196;2024-03-23T04:13:20;7.10;;;2.30;;
20731;SDS011;10527;52.124;5.196;2024-03-23T04:15:46;11.70;;;2.37;;
20731;SDS011;10527;52.124;5.196;2024-03-23T04:18:12;10.27;;;2.27;;
20731;SDS011;10527;52.124;5.196;2024-03-23T04:20:39;6.00;;;1.80;;
20731;SDS011;10527;52.124;5.196;2024-03-23T04:23:06;12.93;;;3.60;;
20731;SDS011;10527;52.124;5.196;2024-03-23T04:25:32;10.07;;;2.13;;
20731;SDS011;10527;52.124;5.196;2024-03-23T04:27:59;6.30;;;2.10;;
20731;SDS011;10527;52.124;5.196;2024-03-23T04:30:25;6.93;;;1.83;;
20731;SDS011;10527;52.124;5.196;2024-03-23T04:32:54;5.23;;;1.80;;
20731;SDS011;10527;52.124;5.196;2024-03-23T04:35:22;6.97;;;1.97;;
20731;SDS011;10527;52.124;5.196;2024-03-23T04:37:50;7.17;;;2.10;;
20731;SDS011;10527;52.124;5.196;2024-03-23T04:40:24;10.27;;;1.93;;
20731;SDS011;10527;52.124;5.196;2024-03-23T04:42:51;5.77;;;1.50;;
20731;SDS011;10527;52.124;5.196;2024-03-23T04:45:17;6.10;;;1.80;;
20731;SDS011;10527;52.124;5.196;2024-03-23T04:47:44;4.50;;;1.73;;
20731;SDS011;10527;52.124;5.196;2024-03-23T04:50:10;6.43;;;2.70;;
20731;SDS011;10527;52.124;5.196;2024-03-23T04:52:37;6.73;;;2.03;;
20731;SDS011;10527;52.124;5.196;2024-03-23T04:55:03;5.20;;;1.63;;
20731;SDS011;10527;52.124;5.196;2024-03-23T04:57:30;7.57;;;2.20;;
20731;SDS011;10527;52.124;5.196;2024-03-23T04:59:56;8.13;;;2.00;;
20731;SDS011;10527;52.124;5.196;2024-03-23T05:02:23;7.50;;;1.67;;
20731;SDS011;10527;52.124;5.196;2024-03-23T05:04:50;13.67;;;1.83;;
20731;SDS011;10527;52.124;5.196;2024-03-23T05:07:17;9.33;;;1.90;;
20731;SDS011;10527;52.124;5.196;2024-03-23T05:09:43;9.43;;;4.00;;
20731;SDS011;10527;52.124;5.196;2024-03-23T05:12:10;7.67;;;2.77;;
20731;SDS011;10527;52.124;5.196;2024-03-23T05:14:36;8.50;;;1.60;;
20731;SDS011;10527;52.124;5.196;2024-03-23T05:17:03;5.20;;;1.97;;
20731;SDS011;10527;52.124;5.196;2024-03-23T05:19:29;9.33;;;4.30;;
20731;SDS011;10527;52.124;5.196;2024-03-23T05:21:56;17.63;;;11.33;;
20731;SDS011;10527;52.124;5.196;2024-03-23T05:24:22;65.27;;;47.27;;
20731;SDS011;10527;52.124;5.196;2024-03-23T05:26:48;28.20;;;21.70;;
20731;SDS011;10527;52.124;5.196;2024-03-23T05:29:15;15.00;;;10.27;;
20731;SDS011;10527;52.124;5.196;2024-03-23T05:31:42;11.57;;;4.40;;
20731;SDS011;10527;52.124;5.196;2024-03-23T05:34:09;8.33;;;2.60;;
20731;SDS011;10527;52.124;5.196;2024-03-23T05:36:35;6.83;;;2.43;;
20731;SDS011;10527;52.124;5.196;2024-03-23T05:39:02;7.33;;;3.13;;
20731;SDS011;10527;52.124;5.196;2024-03-23T05:41:29;5.77;;;1.77;;
20731;SDS011;10527;52.124;5.196;2024-03-23T05:43:55;10.03;;;2.07;;
20731;SDS011;10527;52.124;5.196;2024-03-23T05:46:21;9.70;;;1.40;;
20731;SDS011;10527;52.124;5.196;2024-03-23T05:48:48;7.33;;;1.93;;
20731;SDS011;10527;52.124;5.196;2024-03-23T05:51:15;6.20;;;1.60;;
20731;SDS011;10527;52.124;5.196;2024-03-23T05:53:42;6.60;;;1.70;;
20731;SDS011;10527;52.124;5.196;2024-03-23T05:56:08;5.40;;;1.40;;
20731;SDS011;10527;52.124;5.196;2024-03-23T05:58:35;4.20;;;1.47;;
20731;SDS011;10527;52.124;5.196;2024-03-23T06:01:01;6.87;;;2.03;;
20731;SDS011;10527;52.124;5.196;2024-03-23T06:03:28;7.13;;;1.93;;
20731;SDS011;10527;52.124;5.196;2024-03-23T06:05:55;6.60;;;1.90;;
20731;SDS011;10527;52.124;5.196;2024-03-23T06:08:23;5.60;;;2.07;;
20731;SDS011;10527;52.124;5.196;2024-03-23T06:10:49;4.93;;;2.40;;
20731;SDS011;10527;52.124;5.196;2024-03-23T06:13:16;11.97;;;1.80;;
20731;SDS011;10527;52.124;5.196;2024-03-23T06:15:46;4.80;;;1.30;;
20731;SDS011;10527;52.124;5.196;2024-03-23T06:18:14;5.97;;;1.60;;
20731;SDS011;10527;52.124;5.196;2024-03-23T06:20:40;7.07;;;1.93;;
20731;SDS011;10527;52.124;5.196;2024-03-23T06:23:07;5.10;;;1.80;;
20731;SDS011;10527;52.124;5.196;2024-03-23T06:25:33;5.37;;;1.37;;
20731;SDS011;10527;52.124;5.196;2024-03-23T06:28:00;5.20;;;1.40;;
20731;SDS011;10527;52.124;5.196;2024-03-23T06:30:28;5.37;;;1.57;;
20731;SDS011;10527;52.124;5.196;2024-03-23T06:32:54;7.53;;;2.17;;
20731;SDS011;10527;52.124;5.196;2024-03-23T06:35:21;6.77;;;2.07;;
20731;SDS011;10527;52.124;5.196;2024-03-23T06:37:47;8.23;;;2.13;;
20731;SDS011;10527;52.124;5.196;2024-03-23T06:40:14;9.67;;;1.37;;
20731;SDS011;10527;52.124;5.196;2024-03-23T06:42:40;7.67;;;1.77;;
20731;SDS011;10527;52.124;5.196;2024-03-23T06:45:06;9.47;;;1.60;;
20731;SDS011;10527;52.124;5.196;2024-03-23T06:47:33;13.77;;;1.83;;
20731;SDS011;10527;52.124;5.196;2024-03-23T06:50:00;7.57;;;1.87;;
20731;SDS011;10527;52.124;5.196;2024-03-23T06:52:28;9.80;;;1.83;;
20731;SDS011;10527;52.124;5.196;2024-03-23T06:54:55;6.53;;;2.43;;
20731;SDS011;10527;52.124;5.196;2024-03-23T06:57:22;7.77;;;2.23;;
20731;SDS011;10527;52.124;5.196;2024-03-23T06:59:48;12.73;;;3.10;;
20731;SDS011;10527;52.124;5.196;2024-03-23T07:02:15;9.10;;;3.47;;
20731;SDS011;10527;52.124;5.196;2024-03-23T07:04:41;9.20;;;2.47;;
20731;SDS011;10527;52.124;5.196;2024-03-23T07:07:08;5.37;;;1.97;;
20731;SDS011;10527;52.124;5.196;2024-03-23T07:09:50;6.80;;;2.33;;
20731;SDS011;10527;52.124;5.196;2024-03-23T07:12:17;11.17;;;2.13;;
20731;SDS011;10527;52.124;5.196;2024-03-23T07:14:44;14.57;;;3.17;;
20731;SDS011;10527;52.124;5.196;2024-03-23T07:17:11;5.50;;;1.90;;
20731;SDS011;10527;52.124;5.196;2024-03-23T07:19:37;7.23;;;2.30;;
20731;SDS011;10527;52.124;5.196;2024-03-23T07:22:04;6.90;;;2.43;;
20731;SDS011;10527;52.124;5.196;2024-03-23T07:24:30;8.47;;;2.37;;
20731;SDS011;10527;52.124;5.196;2024-03-23T07:26:58;8.47;;;2.20;;
20731;SDS011;10527;52.124;5.196;2024-03-23T07:29:24;9.97;;;3.00;;
20731;SDS011;10527;52.124;5.196;2024-03-23T07:31:50;11.67;;;2.23;;
20731;SDS011;10527;52.124;5.196;2024-03-23T07:34:17;7.83;;;1.90;;
20731;SDS011;10527;52.124;5.196;2024-03-23T07:36:44;10.07;;;2.37;;
20731;SDS011;10527;52.124;5.196;2024-03-23T07:39:10;10.33;;;2.40;;
20731;SDS011;10527;52.124;5.196;2024-03-23T07:41:36;9.30;;;2.30;;
20731;SDS011;10527;52.124;5.196;2024-03-23T07:44:03;6.60;;;1.67;;
20731;SDS011;10527;52.124;5.196;2024-03-23T07:46:29;8.10;;;1.80;;
20731;SDS011;10527;52.124;5.196;2024-03-23T07:48:56;7.30;;;1.73;;
20731;SDS011;10527;52.124;5.196;2024-03-23T07:51:22;6.77;;;1.87;;
20731;SDS011;10527;52.124;5.196;2024-03-23T07:53:50;8.23;;;1.93;;
20731;SDS011;10527;52.124;5.196;2024-03-23T07:56:18;11.97;;;2.33;;
20731;SDS011;10527;52.124;5.196;2024-03-23T07:58:45;7.27;;;1.97;;
20731;SDS011;10527;52.124;5.196;2024-03-23T08:01:12;6.83;;;1.50;;
20731;SDS011;10527;52.124;5.196;2024-03-23T08:03:41;8.97;;;3.90;;
20731;SDS011;10527;52.124;5.196;2024-03-23T08:06:16;7.47;;;1.87;;
20731;SDS011;10527;52.124;5.196;2024-03-23T08:08:46;7.37;;;1.83;;
20731;SDS011;10527;52.124;5.196;2024-03-23T08:11:13;8.20;;;1.77;;
20731;SDS011;10527;52.124;5.196;2024-03-23T08:13:40;7.53;;;2.00;;
20731;SDS011;10527;52.124;5.196;2024-03-23T08:16:07;8.67;;;2.00;;
20731;SDS011;10527;52.124;5.196;2024-03-23T08:18:34;9.37;;;1.70;;
20731;SDS011;10527;52.124;5.196;2024-03-23T08:21:04;9.77;;;2.23;;
20731;SDS011;10527;52.124;5.196;2024-03-23T08:23:32;11.13;;;1.80;;
20731;SDS011;10527;52.124;5.196;2024-03-23T08:26:01;12.93;;;2.03;;
20731;SDS011;10527;52.124;5.196;2024-03-23T08:28:55;8.52;;;1.83;;
20731;SDS011;10527;52.124;5.196;2024-03-23T08:31:21;7.07;;;1.55;;
20731;SDS011;10527;52.124;5.196;2024-03-23T08:33:47;6.85;;;1.30;;
20731;SDS011;10527;52.124;5.196;2024-03-23T08:36:14;8.43;;;1.30;;
20731;SDS011;10527;52.124;5.196;2024-03-23T08:38:40;6.82;;;1.95;;
20731;SDS011;10527;52.124;5.196;2024-03-23T08:41:10;8.75;;;1.45;;
20731;SDS011;10527;52.124;5.196;2024-03-23T08:43:41;8.60;;;1.83;;
20731;SDS011;10527;52.124;5.196;2024-03-23T08:46:08;4.25;;;1.45;;
20731;SDS011;10527;52.124;5.196;2024-03-23T08:48:39;7.88;;;1.80;;
20731;SDS011;10527;52.124;5.196;2024-03-23T08:51:08;7.47;;;1.55;;
20731;SDS011;10527;52.124;5.196;2024-03-23T08:53:36;6.38;;;1.52;;
20731;SDS011;10527;52.124;5.196;2024-03-23T08:56:03;6.57;;;1.95;;
20731;SDS011;10527;52.124;5.196;2024-03-23T08:58:34;6.35;;;1.30;;
20731;SDS011;10527;52.124;5.196;2024-03-23T09:03:31;4.95;;;1.10;;
20731;SDS011;10527;52.124;5.196;2024-03-23T09:05:57;4.78;;;1.42;;
20731;SDS011;10527;52.124;5.196;2024-03-23T09:08:24;5.85;;;1.58;;
20731;SDS011;10527;52.124;5.196;2024-03-23T09:10:51;5.32;;;1.30;;
20731;SDS011;10527;52.124;5.196;2024-03-23T09:13:17;6.88;;;1.50;;
20731;SDS011;10527;52.124;5.196;2024-03-23T09:15:51;10.87;;;2.57;;
20731;SDS011;10527;52.124;5.196;2024-03-23T09:18:22;5.00;;;1.30;;
20731;SDS011;10527;52.124;5.196;2024-03-23T09:20:49;4.93;;;1.20;;
20731;SDS011;10527;52.124;5.196;2024-03-23T09:23:15;7.67;;;1.70;;
20731;SDS011;10527;52.124;5.196;2024-03-23T09:25:42;7.77;;;1.87;;
20731;SDS011;10527;52.124;5.196;2024-03-23T09:28:08;9.30;;;1.90;;
20731;SDS011;10527;52.124;5.196;2024-03-23T09:30:35;7.43;;;1.37;;
20731;SDS011;10527;52.124;5.196;2024-03-23T09:33:07;5.63;;;1.37;;
20731;SDS011;10527;52.124;5.196;2024-03-23T09:35:38;6.00;;;1.50;;
20731;SDS011;10527;52.124;5.196;2024-03-23T09:38:05;8.30;;;1.67;;
20731;SDS011;10527;52.124;5.196;2024-03-23T09:40:32;7.03;;;1.80;;
20731;SDS011;10527;52.124;5.196;2024-03-23T09:42:59;8.83;;;2.33;;
20731;SDS011;10527;52.124;5.196;2024-03-23T09:45:26;8.17;;;2.03;;
20731;SDS011;10527;52.124;5.196;2024-03-23T09:47:57;8.53;;;2.67;;
20731;SDS011;10527;52.124;5.196;2024-03-23T09:50:23;7.63;;;1.87;;
20731;SDS011;10527;52.124;5.196;2024-03-23T09:52:50;10.65;;;2.65;;
20731;SDS011;10527;52.124;5.196;2024-03-23T09:55:16;9.18;;;2.10;;
20731;SDS011;10527;52.124;5.196;2024-03-23T09:57:43;7.85;;;1.73;;
20731;SDS011;10527;52.124;5.196;2024-03-23T10:00:09;9.80;;;2.42;;
20731;SDS011;10527;52.124;5.196;2024-03-23T10:02:37;9.55;;;1.90;;
20731;SDS011;10527;52.124;5.196;2024-03-23T10:05:04;6.28;;;1.65;;
20731;SDS011;10527;52.124;5.196;2024-03-23T10:07:44;8.82;;;1.45;;
20731;SDS011;10527;52.124;5.196;2024-03-23T10:10:11;7.00;;;1.20;;
20731;SDS011;10527;52.124;5.196;2024-03-23T10:12:39;7.03;;;2.08;;
20731;SDS011;10527;52.124;5.196;2024-03-23T10:15:25;9.37;;;1.53;;
20731;SDS011;10527;52.124;5.196;2024-03-23T10:17:51;8.40;;;1.50;;
20731;SDS011;10527;52.124;5.196;2024-03-23T10:20:19;8.30;;;2.30;;
20731;SDS011;10527;52.124;5.196;2024-03-23T10:22:49;8.70;;;2.93;;
20731;SDS011;10527;52.124;5.196;2024-03-23T10:25:22;7.33;;;2.73;;
20731;SDS011;10527;52.124;5.196;2024-03-23T10:27:59;9.27;;;1.83;;
20731;SDS011;10527;52.124;5.196;2024-03-23T10:30:26;6.10;;;1.53;;
20731;SDS011;10527;52.124;5.196;2024-03-23T10:33:11;6.90;;;2.13;;
20731;SDS011;10527;52.124;5.196;2024-03-23T10:35:38;6.67;;;1.53;;
20731;SDS011;10527;52.124;5.196;2024-03-23T10:38:06;7.67;;;1.67;;
20731;SDS011;10527;52.124;5.196;2024-03-23T10:40:34;11.10;;;1.60;;
20731;SDS011;10527;52.124;5.196;2024-03-23T10:43:01;3.40;;;1.00;;
20731;SDS011;10527;52.124;5.196;2024-03-23T10:45:30;3.63;;;1.00;;
20731;SDS011;10527;52.124;5.196;2024-03-23T10:47:56;3.50;;;0.97;;
20731;SDS011;10527;52.124;5.196;2024-03-23T10:50:23;6.17;;;1.20;;
20731;SDS011;10527;52.124;5.196;2024-03-23T10:52:50;7.57;;;1.20;;
20731;SDS011;10527;52.124;5.196;2024-03-23T10:55:20;6.27;;;1.30;;
20731;SDS011;10527;52.124;5.196;2024-03-23T10:57:55;10.63;;;2.10;;
20731;SDS011;10527;52.124;5.196;2024-03-23T11:00:24;5.17;;;1.70;;
20731;SDS011;10527;52.124;5.196;2024-03-23T11:02:51;10.30;;;2.53;;
20731;SDS011;10527;52.124;5.196;2024-03-23T11:07:54;7.73;;;1.87;;
20731;SDS011;10527;52.124;5.196;2024-03-23T11:10:30;10.07;;;1.50;;
20731;SDS011;10527;52.124;5.196;2024-03-23T11:12:58;5.73;;;1.20;;
20731;SDS011;10527;52.124;5.196;2024-03-23T11:15:46;5.47;;;1.30;;
20731;SDS011;10527;52.124;5.196;2024-03-23T11:18:13;5.73;;;1.70;;
20731;SDS011;10527;52.124;5.196;2024-03-23T11:20:47;6.27;;;1.50;;
20731;SDS011;10527;52.124;5.196;2024-03-23T11:23:29;7.17;;;1.33;;
20731;SDS011;10527;52.124;5.196;2024-03-23T11:25:55;6.97;;;1.43;;
20731;SDS011;10527;52.124;5.196;2024-03-23T11:28:21;5.80;;;1.47;;
20731;SDS011;10527;52.124;5.196;2024-03-23T11:30:48;7.43;;;1.37;;
20731;SDS011;10527;52.124;5.196;2024-03-23T11:33:14;8.60;;;1.73;;
20731;SDS011;10527;52.124;5.196;2024-03-23T11:35:42;8.57;;;1.50;;
20731;SDS011;10527;52.124;5.196;2024-03-23T11:38:12;8.43;;;1.80;;
20731;SDS011;10527;52.124;5.196;2024-03-23T11:40:40;6.80;;;1.40;;
20731;SDS011;10527;52.124;5.196;2024-03-23T11:43:08;9.30;;;2.37;;
20731;SDS011;10527;52.124;5.196;2024-03-23T11:45:43;6.90;;;1.60;;
20731;SDS011;10527;52.124;5.196;2024-03-23T11:48:14;6.80;;;1.50;;
20731;SDS011;10527;52.124;5.196;2024-03-23T11:50:45;8.07;;;1.83;;
20731;SDS011;10527;52.124;5.196;2024-03-23T11:55:49;8.93;;;1.27;;
20731;SDS011;10527;52.124;5.196;2024-03-23T11:58:17;8.57;;;1.77;;
20731;SDS011;10527;52.124;5.196;2024-03-23T12:03:24;3.87;;;1.23;;
20731;SDS011;10527;52.124;5.196;2024-03-23T12:05:53;8.20;;;1.73;;
20731;SDS011;10527;52.124;5.196;2024-03-23T12:08:30;7.33;;;1.80;;
20731;SDS011;10527;52.124;5.196;2024-03-23T12:11:05;6.70;;;1.70;;
20731;SDS011;10527;52.124;5.196;2024-03-23T12:13:33;9.03;;;2.10;;
20731;SDS011;10527;52.124;5.196;2024-03-23T12:18:39;7.10;;;1.37;;
20731;SDS011;10527;52.124;5.196;2024-03-23T12:21:07;4.60;;;1.37;;
20731;SDS011;10527;52.124;5.196;2024-03-23T12:23:34;7.23;;;2.07;;
20731;SDS011;10527;52.124;5.196;2024-03-23T12:26:01;7.03;;;1.80;;
20731;SDS011;10527;52.124;5.196;2024-03-23T12:28:28;6.67;;;1.73;;
20731;SDS011;10527;52.124;5.196;2024-03-23T12:30:54;8.97;;;1.90;;
20731;SDS011;10527;52.124;5.196;2024-03-23T12:33:21;9.23;;;1.93;;
20731;SDS011;10527;52.124;5.196;2024-03-23T12:35:48;8.50;;;1.67;;
20731;SDS011;10527;52.124;5.196;2024-03-23T12:38:15;7.97;;;1.43;;
20731;SDS011;10527;52.124;5.196;2024-03-23T12:40:46;13.80;;;5.33;;
20731;SDS011;10527;52.124;5.196;2024-03-23T12:43:15;21.43;;;11.20;;
20731;SDS011;10527;52.124;5.196;2024-03-23T12:45:46;14.20;;;5.93;;
20731;SDS011;10527;52.124;5.196;2024-03-23T12:48:13;9.93;;;2.90;;
20731;SDS011;10527;52.124;5.196;2024-03-23T12:50:39;7.03;;;1.50;;
20731;SDS011;10527;52.124;5.196;2024-03-23T12:53:06;7.03;;;1.77;;
20731;SDS011;10527;52.124;5.196;2024-03-23T12:55:36;6.93;;;1.40;;
20731;SDS011;10527;52.124;5.196;2024-03-23T12:58:02;6.00;;;1.50;;
20731;SDS011;10527;52.124;5.196;2024-03-23T13:00:30;7.97;;;2.13;;
20731;SDS011;10527;52.124;5.196;2024-03-23T13:02:56;6.97;;;2.13;;
20731;SDS011;10527;52.124;5.196;2024-03-23T13:05:23;8.80;;;1.20;;
20731;SDS011;10527;52.124;5.196;2024-03-23T13:07:49;3.57;;;1.00;;
20731;SDS011;10527;52.124;5.196;2024-03-23T13:10:15;7.87;;;1.60;;
20731;SDS011;10527;52.124;5.196;2024-03-23T13:12:42;7.10;;;1.00;;
20731;SDS011;10527;52.124;5.196;2024-03-23T13:15:08;3.30;;;0.70;;
20731;SDS011;10527;52.124;5.196;2024-03-23T13:17:35;3.33;;;0.70;;
20731;SDS011;10527;52.124;5.196;2024-03-23T13:20:01;2.57;;;0.50;;
20731;SDS011;10527;52.124;5.196;2024-03-23T13:22:29;1.40;;;0.67;;
20731;SDS011;10527;52.124;5.196;2024-03-23T13:24:55;2.83;;;1.10;;
20731;SDS011;10527;52.124;5.196;2024-03-23T13:27:22;3.77;;;0.97;;
20731;SDS011;10527;52.124;5.196;2024-03-23T13:29:48;5.50;;;1.20;;
20731;SDS011;10527;52.124;5.196;2024-03-23T13:32:16;3.73;;;1.27;;
20731;SDS011;10527;52.124;5.196;2024-03-23T13:34:42;4.63;;;1.20;;
20731;SDS011;10527;52.124;5.196;2024-03-23T13:37:09;8.23;;;1.43;;
20731;SDS011;10527;52.124;5.196;2024-03-23T13:39:35;6.63;;;1.97;;
20731;SDS011;10527;52.124;5.196;2024-03-23T13:42:01;28.90;;;11.23;;
20731;SDS011;10527;52.124;5.196;2024-03-23T13:44:29;30.27;;;12.90;;
20731;SDS011;10527;52.124;5.196;2024-03-23T13:46:55;59.27;;;26.07;;
20731;SDS011;10527;52.124;5.196;2024-03-23T13:49:28;43.50;;;19.43;;
20731;SDS011;10527;52.124;5.196;2024-03-23T13:51:56;26.57;;;11.63;;
20731;SDS011;10527;52.124;5.196;2024-03-23T13:54:24;15.73;;;6.57;;
20731;SDS011;10527;52.124;5.196;2024-03-23T13:56:51;8.90;;;2.50;;
20731;SDS011;10527;52.124;5.196;2024-03-23T13:59:19;6.27;;;1.40;;
20731;SDS011;10527;52.124;5.196;2024-03-23T14:01:48;4.93;;;1.10;;
20731;SDS011;10527;52.124;5.196;2024-03-23T14:04:16;7.10;;;2.33;;
20731;SDS011;10527;52.124;5.196;2024-03-23T14:06:44;7.50;;;2.40;;
20731;SDS011;10527;52.124;5.196;2024-03-23T14:09:14;6.63;;;1.30;;
20731;SDS011;10527;52.124;5.196;2024-03-23T14:11:46;5.63;;;1.20;;
20731;SDS011;10527;52.124;5.196;2024-03-23T14:14:12;8.50;;;1.57;;
20731;SDS011;10527;52.124;5.196;2024-03-23T14:16:42;9.37;;;2.23;;
20731;SDS011;10527;52.124;5.196;2024-03-23T14:19:09;5.87;;;1.00;;
20731;SDS011;10527;52.124;5.196;2024-03-23T14:21:35;5.70;;;1.40;;
20731;SDS011;10527;52.124;5.196;2024-03-23T14:24:02;4.60;;;1.00;;
20731;SDS011;10527;52.124;5.196;2024-03-23T14:26:29;4.80;;;1.23;;
20731;SDS011;10527;52.124;5.196;2024-03-23T14:28:55;7.47;;;1.30;;
20731;SDS011;10527;52.124;5.196;2024-03-23T14:31:22;3.70;;;1.20;;
20731;SDS011;10527;52.124;5.196;2024-03-23T14:33:48;5.90;;;1.33;;
20731;SDS011;10527;52.124;5.196;2024-03-23T14:36:16;6.33;;;1.17;;
20731;SDS011;10527;52.124;5.196;2024-03-23T14:38:47;4.40;;;1.10;;
20731;SDS011;10527;52.124;5.196;2024-03-23T14:41:14;5.97;;;1.13;;
20731;SDS011;10527;52.124;5.196;2024-03-23T14:43:40;5.60;;;1.47;;
20731;SDS011;10527;52.124;5.196;2024-03-23T14:48:35;6.60;;;1.03;;
20731;SDS011;10527;52.124;5.196;2024-03-23T14:51:02;6.27;;;1.13;;
20731;SDS011;10527;52.124;5.196;2024-03-23T14:53:34;6.87;;;1.87;;
20731;SDS011;10527;52.124;5.196;2024-03-23T14:56:01;5.40;;;1.10;;
20731;SDS011;10527;52.124;5.196;2024-03-23T14:58:30;3.53;;;0.90;;
20731;SDS011;10527;52.124;5.196;2024-03-23T15:01:00;2.80;;;0.80;;
20731;SDS011;10527;52.124;5.196;2024-03-23T15:03:35;4.77;;;1.17;;
20731;SDS011;10527;52.124;5.196;2024-03-23T15:06:04;5.00;;;1.30;;
20731;SDS011;10527;52.124;5.196;2024-03-23T15:08:30;4.13;;;1.53;;
20731;SDS011;10527;52.124;5.196;2024-03-23T15:11:00;5.33;;;0.93;;
20731;SDS011;10527;52.124;5.196;2024-03-23T15:13:33;3.67;;;1.17;;
20731;SDS011;10527;52.124;5.196;2024-03-23T15:16:00;4.97;;;2.90;;
20731;SDS011;10527;52.124;5.196;2024-03-23T15:18:29;8.70;;;3.07;;
20731;SDS011;10527;52.124;5.196;2024-03-23T15:20:56;4.37;;;1.40;;
20731;SDS011;10527;52.124;5.196;2024-03-23T15:23:31;5.70;;;1.50;;
20731;SDS011;10527;52.124;5.196;2024-03-23T15:25:58;5.90;;;1.60;;
20731;SDS011;10527;52.124;5.196;2024-03-23T15:28:26;7.97;;;1.37;;
20731;SDS011;10527;52.124;5.196;2024-03-23T15:31:10;3.70;;;1.10;;
20731;SDS011;10527;52.124;5.196;2024-03-23T15:33:37;7.07;;;1.60;;
20731;SDS011;10527;52.124;5.196;2024-03-23T15:36:05;4.63;;;1.20;;
20731;SDS011;10527;52.124;5.196;2024-03-23T15:38:31;4.40;;;1.50;;
20731;SDS011;10527;52.124;5.196;2024-03-23T15:40:58;3.87;;;1.10;;
20731;SDS011;10527;52.124;5.196;2024-03-23T15:43:25;4.97;;;1.60;;
20731;SDS011;10527;52.124;5.196;2024-03-23T15:45:56;6.73;;;1.83;;
20731;SDS011;10527;52.124;5.196;2024-03-23T15:48:26;7.33;;;1.10;;
20731;SDS011;10527;52.124;5.196;2024-03-23T15:50:54;6.30;;;1.63;;
20731;SDS011;10527;52.124;5.196;2024-03-23T15:53:21;5.77;;;1.27;;